Time;durP1;ratioP1;P1;durP2;ratioP2;P2;SDS_P1;SDS_P2;PMS_P1;PMS_P2;Temp;Humidity;BMP_temperature;BMP_pressure;BME280_temperature;BME280_humidity;BME280_pressure;Samples;Min_cycle;Max_cycle;Signal;HPM_P1;HPM_P2
2024/03/22 00:02:01;;;;;;;9.95;6.20;;;;;;;;;;10204869;29;20042;-65
2024/03/22 00:07:02;;;;;;;10.23;6.47;;;;;;;;;;10205491;29;20495;-63
2024/03/22 00:12:04;;;;;;;13.82;6.78;;;;;;;;;;10202211;29;20020;-62
2024/03/22 00:17:04;;;;;;;11.18;5.68;;;;;;;;;;10169126;29;20019;-64
2024/03/22 00:22:05;;;;;;;8.65;6.57;;;;;;;;;;10191739;29;20368;-62
2024/03/22 00:27:05;;;;;;;8.82;5.88;;;;;;;;;;10190813;29;20043;-61
2024/03/22 00:32:07;;;;;;;8.50;5.95;;;;;;;;;;10178324;29;20036;-62
2024/03/22 00:37:08;;;;;;;9.65;5.97;;;;;;;;;;10179309;29;20123;-63
2024/03/22 00:42:08;;;;;;;9.15;6.32;;;;;;;;;;10199515;29;20039;-60
2024/03/22 00:47:09;;;;;;;6.43;5.40;;;;;;;;;;10176924;29;20036;-64
2024/03/22 00:52:09;;;;;;;7.65;5.80;;;;;;;;;;10179687;29;20396;-64
2024/03/22 00:57:10;;;;;;;10.35;6.03;;;;;;;;;;10191835;29;20480;-63
2024/03/22 01:02:10;;;;;;;10.30;5.57;;;;;;;;;;10177146;29;20025;-63
2024/03/22 01:07:11;;;;;;;9.07;5.72;;;;;;;;;;10181422;29;20514;-63
2024/03/22 01:12:12;;;;;;;6.82;5.20;;;;;;;;;;10191263;29;20020;-60
2024/03/22 01:17:12;;;;;;;13.35;5.40;;;;;;;;;;10187594;29;20028;-64
2024/03/22 01:22:13;;;;;;;8.80;5.88;;;;;;;;;;10191006;29;20028;-64
2024/03/22 01:27:13;;;;;;;8.82;5.00;;;;;;;;;;10184103;29;20075;-64
2024/03/22 01:32:14;;;;;;;9.27;5.80;;;;;;;;;;10198689;29;20054;-61
2024/03/22 01:37:14;;;;;;;9.82;5.70;;;;;;;;;;10173217;29;20051;-63
2024/03/22 01:42:15;;;;;;;6.50;4.97;;;;;;;;;;10186130;29;20039;-63
2024/03/22 01:47:17;;;;;;;7.75;5.00;;;;;;;;;;10185726;29;20043;-63
2024/03/22 01:52:17;;;;;;;6.63;5.18;;;;;;;;;;10184481;29;20035;-64
2024/03/22 01:57:18;;;;;;;7.45;5.30;;;;;;;;;;10184896;29;20031;-63
2024/03/22 02:02:19;;;;;;;6.75;4.78;;;;;;;;;;10181267;29;20373;-63
2024/03/22 02:07:19;;;;;;;6.35;5.15;;;;;;;;;;10199734;29;20037;-63
2024/03/22 02:12:20;;;;;;;5.70;4.93;;;;;;;;;;10192382;29;20111;-63
2024/03/22 02:17:20;;;;;;;8.80;5.15;;;;;;;;;;10196145;29;20032;-61
2024/03/22 02:22:21;;;;;;;6.40;4.75;;;;;;;;;;10189989;29;20031;-62
2024/03/22 02:27:22;;;;;;;6.82;5.18;;;;;;;;;;10172302;29;20028;-63
2024/03/22 02:32:22;;;;;;;6.90;4.95;;;;;;;;;;10179793;29;20558;-64
2024/03/22 02:37:23;;;;;;;6.10;4.50;;;;;;;;;;10196718;29;20440;-64
2024/03/22 02:42:23;;;;;;;6.30;4.50;;;;;;;;;;10205815;29;20027;-63
2024/03/22 02:47:24;;;;;;;6.53;4.63;;;;;;;;;;10206681;29;20372;-65
2024/03/22 02:52:24;;;;;;;8.77;5.10;;;;;;;;;;10198791;29;20086;-65
2024/03/22 02:57:25;;;;;;;6.22;5.03;;;;;;;;;;10189073;29;20032;-65
2024/03/22 03:02:25;;;;;;;5.65;4.65;;;;;;;;;;10182503;29;20028;-65
2024/03/22 03:07:27;;;;;;;6.22;4.55;;;;;;;;;;10190834;29;20036;-64
2024/03/22 03:12:28;;;;;;;8.13;5.03;;;;;;;;;;10185108;29;20032;-65
2024/03/22 03:17:28;;;;;;;5.32;4.50;;;;;;;;;;10194020;29;20404;-65
2024/03/22 03:22:29;;;;;;;7.30;4.28;;;;;;;;;;10200477;29;20441;-64
2024/03/22 03:27:30;;;;;;;4.50;4.10;;;;;;;;;;10198495;29;20040;-63
2024/03/22 03:32:31;;;;;;;7.70;4.15;;;;;;;;;;10181576;29;20035;-65
2024/03/22 03:37:31;;;;;;;5.18;4.47;;;;;;;;;;10182142;29;20056;-64
2024/03/22 03:42:32;;;;;;;4.35;3.72;;;;;;;;;;10181838;29;20028;-64
2024/03/22 03:47:33;;;;;;;5.22;4.35;;;;;;;;;;10168985;29;20031;-65
2024/03/22 03:52:33;;;;;;;5.43;4.63;;;;;;;;;;10196217;29;20165;-64
2024/03/22 03:57:34;;;;;;;5.28;4.20;;;;;;;;;;10178333;29;20197;-65
2024/03/22 04:02:34;;;;;;;5.60;4.30;;;;;;;;;;10177375;29;20036;-63
2024/03/22 04:07:35;;;;;;;6.28;4.45;;;;;;;;;;10167808;29;20039;-64
2024/03/22 04:12:36;;;;;;;4.95;4.18;;;;;;;;;;10170768;29;20034;-64
2024/03/22 04:17:36;;;;;;;4.72;3.83;;;;;;;;;;10168047;29;20047;-65
2024/03/22 04:22:37;;;;;;;6.50;4.40;;;;;;;;;;10180960;29;20028;-62
2024/03/22 04:27:38;;;;;;;5.75;4.70;;;;;;;;;;10191567;29;20036;-62
2024/03/22 04:32:38;;;;;;;4.53;4.10;;;;;;;;;;10184346;29;20024;-64
2024/03/22 04:37:39;;;;;;;5.30;4.55;;;;;;;;;;10168649;29;20220;-62
2024/03/22 04:42:39;;;;;;;7.00;4.05;;;;;;;;;;10178155;29;20036;-63
2024/03/22 04:47:40;;;;;;;4.80;4.25;;;;;;;;;;10167377;29;20047;-65
2024/03/22 04:52:41;;;;;;;7.30;4.28;;;;;;;;;;10187953;29;20043;-65
2024/03/22 04:57:41;;;;;;;4.80;3.90;;;;;;;;;;10177274;29;20052;-64
2024/03/22 05:02:42;;;;;;;4.78;3.78;;;;;;;;;;10180021;29;20032;-65
2024/03/22 05:07:43;;;;;;;7.13;4.15;;;;;;;;;;10172423;29;20043;-63
2024/03/22 05:17:57;;;;;;;5.15;3.90;;;;;;;;;;10383991;23;20535;-63
2024/03/22 05:22:58;;;;;;;4.40;4.00;;;;;;;;;;10323049;28;20114;-63
2024/03/22 05:27:59;;;;;;;5.20;3.83;;;;;;;;;;10323085;28;20038;-64
2024/03/22 05:32:59;;;;;;;4.35;3.95;;;;;;;;;;10320972;28;20042;-63
2024/03/22 05:38:00;;;;;;;6.03;3.95;;;;;;;;;;10323283;28;20032;-64
2024/03/22 05:43:02;;;;;;;4.28;3.88;;;;;;;;;;10324317;28;20487;-62
2024/03/22 05:48:02;;;;;;;3.97;3.55;;;;;;;;;;10328693;28;20042;-62
2024/03/22 05:53:03;;;;;;;4.95;3.90;;;;;;;;;;10329245;28;20409;-62
2024/03/22 05:58:04;;;;;;;5.07;4.05;;;;;;;;;;10344207;28;20121;-62
2024/03/22 06:03:05;;;;;;;4.03;3.50;;;;;;;;;;10336435;28;20038;-63
2024/03/22 06:08:06;;;;;;;4.18;3.70;;;;;;;;;;10326929;28;20030;-62
2024/03/22 06:13:07;;;;;;;5.38;3.78;;;;;;;;;;10325153;28;20022;-61
2024/03/22 06:18:07;;;;;;;4.70;4.03;;;;;;;;;;10327976;28;20061;-60
2024/03/22 06:23:09;;;;;;;4.43;3.97;;;;;;;;;;10334899;28;20049;-60
2024/03/22 06:28:09;;;;;;;5.30;4.32;;;;;;;;;;10329103;28;20567;-60
2024/03/22 06:33:10;;;;;;;9.40;4.20;;;;;;;;;;10328245;28;20015;-61
2024/03/22 06:38:10;;;;;;;5.47;4.85;;;;;;;;;;10325337;28;20258;-63
2024/03/22 06:43:11;;;;;;;11.38;5.00;;;;;;;;;;10330594;28;20026;-64
2024/03/22 06:48:11;;;;;;;8.95;4.75;;;;;;;;;;10321755;28;20042;-65
2024/03/22 06:53:12;;;;;;;6.97;5.38;;;;;;;;;;10337422;28;20053;-62
2024/03/22 06:58:13;;;;;;;6.40;5.30;;;;;;;;;;10326867;28;20038;-62
2024/03/22 07:03:14;;;;;;;8.20;5.32;;;;;;;;;;10327143;28;20084;-62
2024/03/22 07:08:14;;;;;;;10.57;5.50;;;;;;;;;;10325752;28;20096;-62
2024/03/22 07:13:15;;;;;;;8.38;5.72;;;;;;;;;;10325756;28;20474;-58
2024/03/22 07:18:15;;;;;;;8.10;5.93;;;;;;;;;;10326448;28;20399;-60
2024/03/22 07:23:16;;;;;;;8.20;5.63;;;;;;;;;;10327103;28;20545;-60
2024/03/22 07:28:17;;;;;;;8.90;5.07;;;;;;;;;;10326504;28;20030;-61
2024/03/22 07:33:17;;;;;;;7.65;5.72;;;;;;;;;;10326605;28;20026;-61
2024/03/22 07:38:18;;;;;;;9.65;5.43;;;;;;;;;;10326710;28;20026;-61
2024/03/22 07:43:18;;;;;;;14.02;5.88;;;;;;;;;;10326304;28;20073;-61
2024/03/22 07:48:19;;;;;;;7.40;5.47;;;;;;;;;;10326338;28;20035;-57
2024/03/22 07:53:20;;;;;;;7.72;5.40;;;;;;;;;;10325437;28;20096;-58
2024/03/22 07:58:20;;;;;;;8.30;5.28;;;;;;;;;;10325669;28;20045;-59
2024/03/22 08:03:21;;;;;;;7.22;4.75;;;;;;;;;;10324662;28;20026;-58
2024/03/22 08:08:22;;;;;;;12.13;5.63;;;;;;;;;;10324569;28;20035;-59
2024/03/22 08:13:22;;;;;;;8.45;5.20;;;;;;;;;;10324967;28;20216;-61
2024/03/22 08:18:23;;;;;;;13.40;5.25;;;;;;;;;;10325396;28;20034;-59
2024/03/22 08:23:24;;;;;;;8.45;5.05;;;;;;;;;;10324888;28;20031;-59
2024/03/22 08:28:24;;;;;;;9.15;5.10;;;;;;;;;;10324677;28;20049;-60
2024/03/22 08:33:25;;;;;;;6.97;4.85;;;;;;;;;;10323523;28;20023;-59
2024/03/22 08:38:26;;;;;;;6.07;4.82;;;;;;;;;;10324284;28;20026;-57
2024/03/22 08:43:28;;;;;;;6.40;4.40;;;;;;;;;;10323874;28;20046;-62
2024/03/22 08:48:29;;;;;;;5.75;4.50;;;;;;;;;;10323514;28;20459;-61
2024/03/22 08:53:30;;;;;;;7.07;4.60;;;;;;;;;;10323270;28;20030;-58
2024/03/22 08:58:30;;;;;;;5.13;4.60;;;;;;;;;;10323546;28;20395;-58
2024/03/22 09:03:31;;;;;;;9.02;4.88;;;;;;;;;;10322874;28;20030;-57
2024/03/22 09:08:33;;;;;;;5.63;4.40;;;;;;;;;;10323927;28;20030;-58
2024/03/22 09:13:35;;;;;;;7.72;4.97;;;;;;;;;;10323248;28;20410;-57
2024/03/22 09:18:35;;;;;;;6.35;4.53;;;;;;;;;;10326613;28;20038;-58
2024/03/22 09:23:36;;;;;;;6.70;4.63;;;;;;;;;;10331348;28;20045;-60
2024/03/22 09:28:37;;;;;;;5.38;3.97;;;;;;;;;;10331205;28;20022;-58
2024/03/22 09:33:37;;;;;;;6.00;4.60;;;;;;;;;;10331183;28;20031;-59
2024/03/22 09:38:38;;;;;;;7.60;4.43;;;;;;;;;;10331170;28;20026;-58
2024/03/22 09:43:39;;;;;;;6.18;4.43;;;;;;;;;;10330050;28;20030;-62
2024/03/22 09:48:41;;;;;;;4.93;4.22;;;;;;;;;;10329167;28;20113;-61
2024/03/22 09:53:45;;;;;;;5.97;3.97;;;;;;;;;;10312050;28;20030;-57
2024/03/22 09:58:45;;;;;;;7.43;3.90;;;;;;;;;;10329899;28;20470;-59
2024/03/22 10:03:46;;;;;;;4.70;3.88;;;;;;;;;;10330504;28;20122;-58
2024/03/22 10:08:46;;;;;;;7.40;4.50;;;;;;;;;;10329743;28;20038;-58
2024/03/22 10:13:51;;;;;;;5.38;3.90;;;;;;;;;;10328777;28;20638;-59
2024/03/22 10:18:51;;;;;;;5.25;4.07;;;;;;;;;;10329623;28;20035;-60
2024/03/22 10:23:53;;;;;;;5.90;3.80;;;;;;;;;;10328598;28;20471;-60
2024/03/22 10:28:54;;;;;;;7.03;4.00;;;;;;;;;;10328344;28;20492;-58
2024/03/22 10:33:55;;;;;;;4.82;4.15;;;;;;;;;;10328851;28;20026;-60
2024/03/22 10:38:57;;;;;;;5.25;3.85;;;;;;;;;;10328837;28;20034;-59
2024/03/22 10:44:00;;;;;;;4.97;3.40;;;;;;;;;;10343012;28;20034;-58
2024/03/22 10:49:04;;;;;;;4.80;3.80;;;;;;;;;;10342421;28;20026;-60
2024/03/22 10:54:06;;;;;;;4.03;3.60;;;;;;;;;;10327231;28;20065;-58
2024/03/22 10:59:07;;;;;;;4.20;3.75;;;;;;;;;;10342830;28;20026;-59
2024/03/22 11:04:10;;;;;;;5.03;3.55;;;;;;;;;;10326870;28;20038;-58
2024/03/22 11:09:10;;;;;;;4.72;3.40;;;;;;;;;;10326921;28;20394;-59
2024/03/22 11:14:11;;;;;;;3.55;3.25;;;;;;;;;;10326422;28;20046;-58
2024/03/22 11:19:12;;;;;;;4.18;3.28;;;;;;;;;;10325985;28;20084;-57
2024/03/22 11:24:12;;;;;;;4.85;3.67;;;;;;;;;;10326633;28;20033;-62
2024/03/22 11:29:14;;;;;;;4.45;3.55;;;;;;;;;;10326966;28;20394;-62
2024/03/22 11:34:15;;;;;;;4.85;3.88;;;;;;;;;;10326321;28;20042;-62
2024/03/22 11:39:15;;;;;;;4.03;3.15;;;;;;;;;;10326775;28;20469;-62
2024/03/22 11:44:18;;;;;;;4.35;3.47;;;;;;;;;;10324909;28;20022;-62
2024/03/22 11:49:19;;;;;;;3.95;3.42;;;;;;;;;;10325866;28;20030;-62
2024/03/22 11:54:20;;;;;;;4.93;3.40;;;;;;;;;;10322419;28;20026;-62
2024/03/22 11:59:21;;;;;;;5.15;3.60;;;;;;;;;;10324889;28;20406;-63
2024/03/22 12:04:22;;;;;;;4.32;3.30;;;;;;;;;;10325254;28;20041;-61
2024/03/22 12:09:23;;;;;;;4.22;3.35;;;;;;;;;;10325415;28;20066;-61
2024/03/22 12:14:23;;;;;;;5.25;3.50;;;;;;;;;;10324353;28;20042;-62
2024/03/22 12:19:24;;;;;;;3.53;3.08;;;;;;;;;;10324061;28;20065;-59
2024/03/22 12:24:29;;;;;;;4.30;3.40;;;;;;;;;;10324434;28;20027;-59
2024/03/22 12:29:33;;;;;;;4.53;3.20;;;;;;;;;;10324315;28;20109;-61
2024/03/22 12:34:33;;;;;;;4.20;3.20;;;;;;;;;;10324200;28;20033;-59
2024/03/22 12:39:34;;;;;;;3.70;2.92;;;;;;;;;;10324874;28;20394;-58
2024/03/22 12:44:35;;;;;;;5.35;3.05;;;;;;;;;;10321836;28;20482;-61
2024/03/22 12:49:36;;;;;;;3.28;2.95;;;;;;;;;;10321679;28;20042;-62
2024/03/22 12:54:36;;;;;;;4.00;3.53;;;;;;;;;;10323126;28;20033;-61
2024/03/22 12:59:37;;;;;;;8.15;3.20;;;;;;;;;;10330731;28;20174;-62
2024/03/22 13:04:38;;;;;;;5.00;3.15;;;;;;;;;;10330219;28;20045;-62
2024/03/22 13:09:38;;;;;;;4.78;3.40;;;;;;;;;;10331002;28;20034;-62
2024/03/22 13:14:39;;;;;;;3.00;2.72;;;;;;;;;;10331370;28;20053;-58
2024/03/22 13:19:39;;;;;;;3.90;3.28;;;;;;;;;;10331598;28;20034;-60
2024/03/22 13:24:40;;;;;;;4.13;3.13;;;;;;;;;;10329306;28;20038;-62
2024/03/22 13:29:41;;;;;;;4.68;2.90;;;;;;;;;;10330639;28;20041;-57
2024/03/22 13:34:42;;;;;;;4.78;3.50;;;;;;;;;;10328931;28;20038;-61
2024/03/22 13:39:43;;;;;;;5.28;3.78;;;;;;;;;;10329519;28;20148;-62
2024/03/22 13:44:44;;;;;;;4.22;3.55;;;;;;;;;;10328561;28;20038;-59
2024/03/22 13:49:44;;;;;;;3.60;3.30;;;;;;;;;;10330175;28;20130;-60
2024/03/22 13:54:45;;;;;;;5.28;3.35;;;;;;;;;;10329040;28;20030;-61
2024/03/22 13:59:46;;;;;;;4.63;3.20;;;;;;;;;;10329418;28;20470;-61
2024/03/22 14:04:47;;;;;;;3.85;3.22;;;;;;;;;;10328945;28;20394;-61
2024/03/22 14:09:48;;;;;;;5.22;3.67;;;;;;;;;;10328590;28;20029;-61
2024/03/22 14:14:48;;;;;;;4.70;3.60;;;;;;;;;;10327343;28;20286;-60
2024/03/22 14:19:49;;;;;;;4.55;3.65;;;;;;;;;;10328895;28;20088;-62
2024/03/22 14:24:49;;;;;;;4.28;3.22;;;;;;;;;;10328995;28;20042;-60
2024/03/22 14:29:51;;;;;;;3.75;3.38;;;;;;;;;;10324050;28;20038;-61
2024/03/22 14:34:52;;;;;;;4.03;3.30;;;;;;;;;;10328199;28;20026;-64
2024/03/22 14:39:53;;;;;;;8.13;3.35;;;;;;;;;;10329154;28;20041;-64
2024/03/22 14:44:55;;;;;;;4.72;3.03;;;;;;;;;;10328092;28;20053;-63
2024/03/22 14:49:56;;;;;;;4.35;2.90;;;;;;;;;;10327890;28;20056;-64
2024/03/22 14:54:56;;;;;;;5.75;3.83;;;;;;;;;;10327097;28;20034;-64
2024/03/22 14:59:57;;;;;;;6.60;3.53;;;;;;;;;;10327472;28;20078;-62
2024/03/22 15:04:58;;;;;;;6.13;3.70;;;;;;;;;;10325849;28;20030;-64
2024/03/22 15:09:59;;;;;;;6.82;3.50;;;;;;;;;;10325215;28;20406;-63
2024/03/22 15:14:59;;;;;;;7.00;3.90;;;;;;;;;;10314716;28;20039;-63
2024/03/22 15:20:00;;;;;;;6.90;3.80;;;;;;;;;;10313920;28;20026;-63
2024/03/22 15:25:01;;;;;;;8.73;3.58;;;;;;;;;;10329863;28;20716;-63
2024/03/22 15:30:01;;;;;;;8.60;3.78;;;;;;;;;;10326789;28;20042;-63
2024/03/22 15:35:02;;;;;;;11.05;4.28;;;;;;;;;;10323036;28;20030;-59
2024/03/22 15:40:05;;;;;;;17.33;4.80;;;;;;;;;;10323049;28;20022;-64
2024/03/22 15:45:05;;;;;;;10.48;4.57;;;;;;;;;;10322085;28;20033;-64
2024/03/22 15:50:06;;;;;;;9.10;4.75;;;;;;;;;;10319668;28;20019;-64
2024/03/22 15:55:08;;;;;;;8.77;4.40;;;;;;;;;;10320924;28;20034;-64
2024/03/22 16:00:11;;;;;;;8.60;4.05;;;;;;;;;;10330145;28;20069;-63
2024/03/22 16:05:12;;;;;;;9.32;4.47;;;;;;;;;;10323714;28;20482;-64
2024/03/22 16:10:13;;;;;;;6.95;4.07;;;;;;;;;;10322656;28;20034;-63
2024/03/22 16:15:13;;;;;;;6.32;4.03;;;;;;;;;;10321936;28;20510;-60
2024/03/22 16:20:14;;;;;;;7.07;4.10;;;;;;;;;;10331634;28;20109;-64
2024/03/22 16:25:15;;;;;;;8.88;4.22;;;;;;;;;;10322380;28;20085;-63
2024/03/22 16:30:16;;;;;;;8.50;4.32;;;;;;;;;;10320810;28;20117;-64
2024/03/22 16:35:17;;;;;;;10.52;4.05;;;;;;;;;;10317403;28;20039;-63
2024/03/22 16:40:20;;;;;;;9.23;4.05;;;;;;;;;;10316291;28;20038;-64
2024/03/22 16:45:20;;;;;;;10.40;4.15;;;;;;;;;;10332261;28;20048;-64
2024/03/22 16:50:21;;;;;;;9.52;3.97;;;;;;;;;;10328503;28;20041;-64
2024/03/22 16:55:24;;;;;;;8.43;4.05;;;;;;;;;;10336786;28;20430;-64
2024/03/22 17:00:24;;;;;;;11.77;4.28;;;;;;;;;;10334389;28;20043;-63
2024/03/22 17:05:25;;;;;;;4.90;3.72;;;;;;;;;;10340879;28;20046;-64
2024/03/22 17:10:26;;;;;;;14.25;3.90;;;;;;;;;;10332303;28;20034;-64
2024/03/22 17:15:26;;;;;;;5.20;3.90;;;;;;;;;;10334484;28;20138;-64
2024/03/22 17:20:28;;;;;;;9.07;3.72;;;;;;;;;;10335996;28;20033;-64
2024/03/22 17:25:29;;;;;;;10.05;3.65;;;;;;;;;;10336809;28;20184;-64
2024/03/22 17:30:29;;;;;;;5.53;3.55;;;;;;;;;;10332975;28;20031;-59
2024/03/22 17:35:30;;;;;;;4.05;3.30;;;;;;;;;;10336812;28;20030;-64
2024/03/22 17:40:31;;;;;;;8.55;4.22;;;;;;;;;;10326167;28;20101;-59
2024/03/22 17:45:32;;;;;;;9.27;4.32;;;;;;;;;;10326128;28;20073;-59
2024/03/22 17:50:33;;;;;;;11.20;5.13;;;;;;;;;;10327220;28;20030;-59
2024/03/22 17:55:33;;;;;;;9.10;4.40;;;;;;;;;;10326919;28;20036;-58
2024/03/22 18:00:34;;;;;;;7.00;4.22;;;;;;;;;;10328050;28;20034;-59
2024/03/22 18:05:34;;;;;;;6.38;3.97;;;;;;;;;;10327946;28;20041;-59
2024/03/22 18:10:36;;;;;;;10.00;4.38;;;;;;;;;;10328057;28;20026;-59
2024/03/22 18:15:39;;;;;;;7.97;4.28;;;;;;;;;;10326238;28;20052;-64
2024/03/22 18:20:40;;;;;;;10.30;4.13;;;;;;;;;;10326671;28;20488;-63
2024/03/22 18:25:40;;;;;;;6.05;3.88;;;;;;;;;;10339360;28;20096;-61
2024/03/22 18:30:41;;;;;;;7.85;3.97;;;;;;;;;;10331430;28;20081;-63
2024/03/22 18:35:43;;;;;;;7.88;3.78;;;;;;;;;;10336647;28;20022;-64
2024/03/22 18:40:44;;;;;;;11.82;4.25;;;;;;;;;;10340889;28;20034;-62
2024/03/22 18:45:44;;;;;;;4.97;3.72;;;;;;;;;;10345357;28;20038;-62
2024/03/22 18:50:46;;;;;;;6.90;4.22;;;;;;;;;;10341244;28;20042;-59
2024/03/22 18:55:47;;;;;;;7.05;4.28;;;;;;;;;;10337324;28;20116;-62
2024/03/22 19:00:48;;;;;;;6.38;4.18;;;;;;;;;;10326765;28;20026;-61
2024/03/22 19:05:49;;;;;;;8.80;4.00;;;;;;;;;;10326331;28;20108;-60
2024/03/22 19:10:50;;;;;;;6.55;3.63;;;;;;;;;;10331393;28;20034;-58
2024/03/22 19:15:55;;;;;;;9.65;4.10;;;;;;;;;;10329052;28;20042;-59
2024/03/22 19:20:56;;;;;;;7.05;3.97;;;;;;;;;;10329584;28;20026;-59
2024/03/22 19:25:56;;;;;;;8.18;3.90;;;;;;;;;;10317881;28;20038;-58
2024/03/22 19:30:57;;;;;;;11.43;4.15;;;;;;;;;;10315881;28;20086;-58
2024/03/22 19:36:00;;;;;;;9.98;4.07;;;;;;;;;;10325693;28;20018;-58
2024/03/22 19:41:01;;;;;;;6.38;4.03;;;;;;;;;;10324478;28;20035;-59
2024/03/22 19:46:02;;;;;;;8.90;3.72;;;;;;;;;;10323011;28;20498;-61
2024/03/22 19:51:06;;;;;;;5.68;3.83;;;;;;;;;;10321559;28;20050;-62
2024/03/22 19:56:07;;;;;;;6.07;3.85;;;;;;;;;;10323958;28;20018;-61
2024/03/22 20:01:07;;;;;;;5.55;4.28;;;;;;;;;;10331313;28;20402;-61
2024/03/22 20:06:08;;;;;;;5.35;4.07;;;;;;;;;;10321854;28;20372;-60
2024/03/22 20:11:09;;;;;;;6.22;4.07;;;;;;;;;;10323801;28;20029;-59
2024/03/22 20:16:09;;;;;;;4.30;3.63;;;;;;;;;;10322474;28;20125;-61
2024/03/22 20:21:10;;;;;;;9.50;3.78;;;;;;;;;;10323606;28;20545;-61
2024/03/22 20:26:10;;;;;;;7.05;3.90;;;;;;;;;;10319091;28;20376;-61
2024/03/22 20:31:13;;;;;;;7.90;4.07;;;;;;;;;;10322363;28;20383;-59
2024/03/22 20:36:14;;;;;;;9.57;4.35;;;;;;;;;;10323026;28;20513;-60
2024/03/22 20:41:18;;;;;;;4.40;4.00;;;;;;;;;;10322443;28;20133;-59
2024/03/22 20:46:20;;;;;;;7.72;3.70;;;;;;;;;;10322679;28;20104;-60
2024/03/22 20:51:22;;;;;;;6.40;3.95;;;;;;;;;;10323179;28;20038;-62
2024/03/22 20:56:24;;;;;;;7.70;4.20;;;;;;;;;;10322329;28;20042;-60
2024/03/22 21:01:26;;;;;;;9.25;3.85;;;;;;;;;;10322696;28;20375;-62
2024/03/22 21:06:29;;;;;;;6.72;3.97;;;;;;;;;;10322184;28;20035;-61
2024/03/22 21:11:31;;;;;;;5.65;3.40;;;;;;;;;;10322676;28;20100;-59
2024/03/22 21:16:33;;;;;;;6.43;4.03;;;;;;;;;;10328605;28;20097;-57
2024/03/22 21:21:35;;;;;;;8.02;4.00;;;;;;;;;;10329747;28;20179;-58
2024/03/22 21:26:38;;;;;;;9.88;4.82;;;;;;;;;;10336063;28;20034;-58
2024/03/22 21:31:40;;;;;;;6.72;4.45;;;;;;;;;;10328087;28;20089;-60
2024/03/22 21:36:42;;;;;;;13.32;4.03;;;;;;;;;;10328905;28;20030;-58
2024/03/22 21:41:46;;;;;;;7.90;4.72;;;;;;;;;;10328214;28;20467;-58
2024/03/22 21:46:48;;;;;;;7.20;3.95;;;;;;;;;;10328187;28;20301;-58
2024/03/22 21:51:50;;;;;;;7.88;4.82;;;;;;;;;;10327381;28;20509;-58
2024/03/22 21:56:53;;;;;;;9.50;5.88;;;;;;;;;;10327380;28;20085;-58
2024/03/22 22:01:55;;;;;;;6.82;4.72;;;;;;;;;;10326978;28;20437;-58
2024/03/22 22:06:57;;;;;;;9.50;5.20;;;;;;;;;;10325444;28;20416;-59
2024/03/22 22:11:59;;;;;;;9.27;4.70;;;;;;;;;;10327262;28;20100;-58
2024/03/22 22:17:01;;;;;;;10.02;5.03;;;;;;;;;;10326445;28;20124;-59
2024/03/22 22:22:03;;;;;;;8.52;5.20;;;;;;;;;;10327124;28;20026;-58
2024/03/22 22:27:05;;;;;;;9.20;4.93;;;;;;;;;;10325631;28;20034;-58
2024/03/22 22:32:08;;;;;;;13.38;5.78;;;;;;;;;;10326887;28;20081;-58
2024/03/22 22:37:10;;;;;;;7.97;4.70;;;;;;;;;;10327556;28;20073;-58
2024/03/22 22:42:13;;;;;;;9.18;5.32;;;;;;;;;;10327494;28;20077;-59
2024/03/22 22:47:15;;;;;;;7.15;4.82;;;;;;;;;;10327041;28;20062;-60
2024/03/22 22:52:17;;;;;;;7.05;4.32;;;;;;;;;;10325817;28;20064;-61
2024/03/22 22:57:19;;;;;;;10.70;4.50;;;;;;;;;;10322944;28;20034;-62
2024/03/22 23:02:21;;;;;;;10.32;5.35;;;;;;;;;;10326244;28;20057;-61
2024/03/22 23:07:23;;;;;;;11.40;5.60;;;;;;;;;;10327181;28;20042;-62
2024/03/22 23:12:26;;;;;;;12.05;5.53;;;;;;;;;;10325215;28;20472;-62
2024/03/22 23:17:28;;;;;;;8.05;4.80;;;;;;;;;;10315280;28;20132;-59
2024/03/22 23:22:30;;;;;;;8.65;5.03;;;;;;;;;;10323786;28;20481;-59
2024/03/22 23:27:32;;;;;;;8.70;5.28;;;;;;;;;;10327034;28;20066;-59
2024/03/22 23:32:34;;;;;;;7.05;4.82;;;;;;;;;;10324946;28;20038;-60
2024/03/22 23:37:36;;;;;;;9.88;5.40;;;;;;;;;;10347994;28;20086;-64
2024/03/22 23:42:39;;;;;;;12.43;5.25;;;;;;;;;;10336022;28;20066;-62
2024/03/22 23:47:41;;;;;;;12.13;4.93;;;;;;;;;;10324769;28;20042;-62
2024/03/22 23:52:43;;;;;;;11.88;4.88;;;;;;;;;;10323831;28;20466;-60
2024/03/22 23:57:45;;;;;;;9.40;5.03;;;;;;;;;;10330822;28;20069;-60
